createdAt,value
2024-01-20T00:22:26.356Z,94.10
2024-01-20T00:28:09.350Z,94.21
2024-01-20T00:34:08.781Z,94.34
2024-01-20T00:39:26.717Z,93.92
2024-01-20T00:44:43.867Z,93.78
2024-01-20T00:50:07.416Z,93.52
2024-01-20T00:55:13.431Z,92.83
2024-01-20T01:00:31.318Z,92.96
2024-01-20T01:05:42.326Z,93.39
2024-01-20T01:11:04.423Z,93.66
2024-01-20T01:17:09.144Z,94.43
2024-01-20T01:22:26.688Z,95.01
2024-01-20T01:27:40.898Z,95.55
2024-01-20T01:32:50.418Z,95.30
2024-01-20T01:38:16.593Z,95.16
2024-01-20T01:43:50.936Z,94.91
2024-01-20T01:49:21.020Z,94.91
2024-01-20T01:54:34.804Z,94.97
2024-01-20T01:59:59.800Z,94.66
2024-01-20T02:05:09.879Z,94.84
2024-01-20T02:10:25.931Z,94.12
2024-01-20T02:15:31.098Z,94.11
2024-01-20T02:21:06.634Z,94.56
2024-01-20T02:26:41.687Z,94.51
2024-01-20T02:32:09.524Z,94.50
2024-01-20T02:37:15.045Z,95.19
2024-01-20T02:42:28.329Z,95.31
2024-01-20T02:48:18.965Z,95.64
2024-01-20T02:54:02.127Z,95.79
2024-01-20T02:59:38.696Z,95.46
2024-01-20T03:04:58.315Z,95.27
2024-01-20T03:10:05.326Z,94.95
2024-01-20T03:16:04.779Z,94.76
2024-01-20T03:21:12.889Z,94.28
2024-01-20T03:26:32.166Z,93.76
2024-01-20T03:32:07.724Z,93.67
2024-01-20T03:37:32.405Z,93.83
2024-01-20T03:43:29.289Z,93.96
2024-01-20T03:48:50.412Z,94.44
2024-01-20T03:59:37.522Z,94.02
2024-01-20T04:05:26.660Z,95.03
2024-01-20T04:10:51.998Z,95.34
2024-01-20T04:16:10.273Z,95.42
2024-01-20T04:21:15.113Z,95.31
2024-01-20T04:26:48.336Z,94.83
2024-01-20T04:31:56.865Z,94.37
2024-01-20T04:37:09.234Z,94.28
2024-01-20T04:42:24.494Z,94.45
2024-01-20T04:47:59.879Z,94.45
2024-01-20T04:53:37.006Z,94.90
2024-01-20T04:58:51.542Z,94.87
2024-01-20T05:04:46.694Z,94.98
2024-01-20T05:10:42.788Z,95.03
2024-01-20T05:16:43.258Z,94.80
2024-01-20T05:21:51.087Z,95.02
2024-01-20T05:26:54.977Z,94.84
2024-01-20T05:32:22.719Z,95.09
2024-01-20T05:37:34.373Z,94.91
2024-01-20T05:42:58.580Z,94.51
2024-01-20T05:48:56.844Z,94.29
2024-01-20T05:54:44.491Z,93.96
2024-01-20T06:00:25.905Z,93.65
2024-01-20T06:05:36.901Z,93.40
2024-01-20T06:10:44.815Z,93.25
2024-01-20T06:15:52.839Z,93.49
2024-01-20T06:22:10.332Z,93.57
2024-01-20T06:27:17.590Z,93.76
2024-01-20T06:32:22.286Z,93.66
2024-01-20T06:38:08.897Z,93.54
2024-01-20T06:43:19.138Z,93.13
2024-01-20T06:48:28.288Z,92.87
2024-01-20T06:53:35.057Z,92.88
2024-01-20T06:58:41.993Z,92.72
2024-01-20T07:04:18.929Z,92.95
2024-01-20T07:09:29.871Z,93.23
2024-01-20T07:14:54.368Z,92.79
2024-01-20T07:20:25.411Z,92.80
2024-01-20T07:26:10.182Z,92.73
2024-01-20T07:32:15.786Z,92.41
2024-01-20T07:37:45.629Z,92.64
2024-01-20T07:43:36.208Z,93.25
2024-01-20T07:48:48.561Z,93.02
2024-01-20T07:54:17.760Z,92.91
2024-01-20T07:59:32.926Z,92.94
2024-01-20T08:04:43.537Z,93.12
2024-01-20T08:10:18.022Z,92.99
2024-01-20T08:16:08.728Z,92.43
2024-01-20T08:21:24.057Z,91.96
2024-01-20T08:26:57.095Z,91.52
2024-01-20T08:32:44.069Z,89.94
2024-01-20T08:38:22.623Z,86.71
2024-01-20T08:43:48.750Z,82.95
2024-01-20T08:48:54.189Z,84.64
2024-01-20T08:54:02.100Z,78.61
2024-01-20T08:59:36.359Z,77.73
2024-01-20T09:04:44.510Z,76.39
2024-01-20T09:10:16.132Z,78.52
2024-01-20T09:16:02.193Z,75.17
2024-01-20T09:21:29.774Z,77.15
2024-01-20T09:26:45.934Z,76.04
2024-01-20T09:31:51.570Z,75.42
2024-01-20T09:37:25.949Z,74.96
2024-01-20T09:43:04.036Z,75.75
2024-01-20T09:48:58.971Z,75.58
2024-01-20T09:54:07.897Z,77.96
2024-01-20T09:59:31.777Z,77.13
2024-01-20T10:04:48.988Z,77.31
2024-01-20T10:10:00.712Z,77.33
2024-01-20T10:15:35.529Z,78.24
2024-01-20T10:21:07.705Z,77.41
2024-01-20T10:26:27.936Z,78.28
2024-01-20T10:32:16.643Z,78.16
2024-01-20T10:37:24.308Z,77.71
2024-01-20T10:42:36.213Z,79.45
2024-01-20T10:48:13.692Z,76.97
2024-01-20T10:53:49.510Z,74.76
2024-01-20T10:59:17.107Z,73.73
2024-01-20T11:04:47.105Z,72.64
2024-01-20T11:10:27.205Z,73.79
2024-01-20T11:16:06.971Z,75.10
2024-01-20T11:21:27.228Z,74.21
2024-01-20T11:26:41.093Z,72.09
2024-01-20T11:32:42.072Z,73.11
2024-01-20T12:38:15.557Z,71.99
2024-01-20T12:44:03.055Z,71.93
2024-01-20T12:50:17.785Z,72.19
2024-01-20T12:56:03.766Z,71.54
2024-01-20T13:01:35.563Z,74.07
2024-01-20T13:06:55.447Z,72.88
2024-01-20T13:12:15.389Z,72.41
2024-01-20T13:18:12.194Z,73.22
2024-01-20T14:03:59.115Z,72.34
2024-01-20T14:09:14.566Z,73.84
2024-01-20T14:14:20.005Z,74.78
2024-01-20T14:19:51.391Z,74.55
2024-01-20T14:25:25.548Z,74.55
2024-01-20T14:31:14.258Z,73.77
2024-01-20T14:37:08.441Z,73.80
2024-01-20T14:42:53.507Z,74.40
2024-01-20T14:48:16.846Z,74.28
2024-01-20T14:54:08.020Z,73.92
2024-01-20T15:00:06.741Z,75.00
2024-01-20T15:05:40.056Z,75.20
2024-01-20T15:10:51.452Z,75.61
2024-01-20T15:16:28.330Z,75.96
2024-01-20T15:21:57.426Z,75.66
2024-01-20T15:27:05.226Z,76.21
2024-01-20T15:32:34.941Z,76.28
2024-01-20T15:38:15.709Z,75.95
2024-01-20T15:44:33.515Z,76.63
2024-01-20T15:50:10.649Z,76.93
2024-01-20T15:55:51.434Z,77.22
2024-01-20T16:01:22.036Z,77.52
2024-01-20T16:07:27.032Z,77.52
2024-01-20T16:13:32.777Z,78.20
2024-01-20T16:19:30.674Z,78.31
2024-01-20T17:18:35.290Z,79.51
2024-01-20T17:24:02.476Z,79.40
2024-01-20T17:29:48.562Z,79.76
2024-01-20T17:35:23.481Z,79.65
2024-01-20T17:41:31.195Z,79.55
2024-01-20T18:00:27.161Z,79.88
2024-01-20T18:06:45.360Z,80.30
2024-01-20T18:12:48.698Z,80.23
2024-01-20T18:18:17.400Z,79.77
2024-01-20T18:24:26.824Z,79.60
2024-01-20T18:30:12.135Z,79.75
2024-01-20T18:36:13.265Z,80.06
2024-01-20T18:42:23.214Z,79.81
2024-01-20T18:48:43.873Z,79.86
2024-01-20T18:55:14.011Z,79.88
2024-01-20T19:01:28.430Z,80.17
2024-01-20T19:45:23.498Z,78.55
2024-01-20T19:51:49.584Z,78.98
2024-01-20T20:28:24.604Z,78.82
2024-01-20T20:33:51.477Z,78.93
2024-01-20T20:40:07.164Z,79.02
2024-01-20T20:45:35.807Z,79.13
2024-01-20T20:50:52.135Z,79.17
2024-01-20T20:56:01.224Z,78.73
2024-01-20T21:01:10.388Z,78.88
2024-01-20T21:07:11.660Z,79.36
2024-01-20T21:13:06.439Z,79.03
2024-01-20T21:18:19.840Z,78.49
2024-01-20T21:23:47.022Z,78.39
2024-01-20T21:30:00.773Z,78.40
2024-01-20T21:35:25.919Z,78.68
2024-01-20T21:41:01.100Z,78.48
2024-01-20T21:46:20.818Z,78.97
2024-01-20T21:52:36.577Z,79.14
2024-01-20T21:57:47.439Z,78.26
2024-01-20T22:03:10.847Z,78.39
2024-01-20T22:08:37.410Z,77.98
2024-01-20T22:14:30.753Z,77.94
2024-01-20T22:20:43.232Z,77.55
2024-01-20T22:33:04.056Z,77.74
2024-01-20T22:38:30.912Z,77.33
2024-01-20T22:43:39.876Z,77.13
2024-01-20T22:49:08.796Z,77.49
2024-01-20T23:00:52.217Z,78.09
2024-01-20T23:06:57.428Z,77.71
2024-01-20T23:12:33.582Z,78.04
2024-01-20T23:17:57.191Z,78.23
2024-01-20T23:23:08.645Z,78.02
2024-01-20T23:28:47.401Z,77.90
2024-01-20T23:34:19.714Z,77.61
2024-01-20T23:40:07.942Z,77.69
2024-01-20T23:45:29.064Z,77.89
2024-01-20T23:51:18.974Z,78.18
2024-01-20T23:57:07.932Z,77.99
